createdAt,value
2018-03-02T00:01:02.388Z,49.30
2018-03-02T00:03:34.852Z,49.70
2018-03-02T00:06:08.056Z,49.80
2018-03-02T00:08:40.771Z,49.80
2018-03-02T00:11:13.407Z,49.60
2018-03-02T00:13:46.005Z,50.00
2018-03-02T00:16:18.417Z,49.80
2018-03-02T00:18:50.863Z,49.80
2018-03-02T00:21:23.598Z,50.20
2018-03-02T00:23:55.897Z,50.10
2018-03-02T00:29:07.817Z,50.60
2018-03-02T00:31:40.199Z,50.60
2018-03-02T00:34:12.685Z,50.40
2018-03-02T00:36:45.442Z,51.00
2018-03-02T00:39:17.855Z,51.20
2018-03-02T00:41:44.207Z,51.70
2018-03-02T00:44:16.883Z,51.50
2018-03-02T00:46:50.526Z,51.80
2018-03-02T00:49:23.161Z,52.80
2018-03-02T00:51:55.762Z,52.90
2018-03-02T00:54:28.145Z,52.20
2018-03-02T00:57:00.526Z,52.30
2018-03-02T00:59:32.877Z,52.20
2018-03-02T01:02:05.448Z,52.80
2018-03-02T01:04:38.657Z,53.10
2018-03-02T01:07:11.242Z,53.10
2018-03-02T01:09:43.806Z,53.00
2018-03-02T01:12:16.356Z,53.30
2018-03-02T01:14:48.860Z,53.10
2018-03-02T01:17:15.423Z,53.50
2018-03-02T01:19:47.999Z,53.40
2018-03-02T01:22:20.515Z,53.80
2018-03-02T01:24:52.947Z,53.70
2018-03-02T01:27:25.453Z,53.20
2018-03-02T01:29:59.025Z,54.00
2018-03-02T01:32:31.824Z,54.00
2018-03-02T01:35:04.421Z,53.50
2018-03-02T01:37:37.130Z,53.90
2018-03-02T01:40:09.655Z,53.90
2018-03-02T01:42:42.861Z,54.60
2018-03-02T01:45:16.001Z,54.60
2018-03-02T01:47:48.547Z,54.10
2018-03-02T01:50:21.260Z,54.20
2018-03-02T01:52:53.757Z,54.70
2018-03-02T01:55:26.177Z,55.40
2018-03-02T01:57:58.543Z,55.10
2018-03-02T02:00:31.290Z,55.50
2018-03-02T02:03:03.816Z,56.10
2018-03-02T02:05:36.475Z,55.70
2018-03-02T02:08:06.367Z,55.30
2018-03-02T02:10:38.824Z,55.10
2018-03-02T02:13:12.079Z,54.70
2018-03-02T02:15:44.651Z,54.60
2018-03-02T02:18:17.142Z,55.00
2018-03-02T02:20:49.582Z,55.90
2018-03-02T02:23:21.991Z,55.40
2018-03-02T02:25:54.452Z,54.90
2018-03-02T02:28:28.450Z,55.20
2018-03-02T02:31:01.368Z,55.20
2018-03-02T02:33:34.520Z,55.40
2018-03-02T02:36:06.963Z,55.40
2018-03-02T02:38:40.100Z,56.00
2018-03-02T02:41:12.772Z,56.00
2018-03-02T02:43:45.218Z,54.60
2018-03-02T02:46:18.448Z,55.80
2018-03-02T02:48:51.636Z,56.00
2018-03-02T02:51:24.308Z,55.60
2018-03-02T02:53:56.759Z,55.70
2018-03-02T02:56:29.815Z,56.00
2018-03-02T02:59:02.392Z,55.40
2018-03-02T03:01:34.728Z,54.70
2018-03-02T03:04:07.144Z,54.90
2018-03-02T03:06:40.524Z,54.80
2018-03-02T03:09:12.912Z,54.80
2018-03-02T03:11:46.354Z,54.90
2018-03-02T03:14:18.828Z,55.20
2018-03-02T03:16:51.403Z,55.20
2018-03-02T03:19:23.887Z,55.70
2018-03-02T03:21:57.203Z,56.10
2018-03-02T03:24:29.620Z,56.00
2018-03-02T03:27:02.079Z,55.50
2018-03-02T03:29:34.661Z,56.10
2018-03-02T03:32:07.563Z,57.30
2018-03-02T03:34:40.016Z,57.50
2018-03-02T03:37:12.734Z,58.30
2018-03-02T03:39:45.174Z,58.10
2018-03-02T03:42:12.380Z,58.40
2018-03-02T03:44:44.896Z,58.50
2018-03-02T03:47:18.423Z,58.50
2018-03-02T03:49:51.907Z,58.60
2018-03-02T03:52:24.540Z,58.60
2018-03-02T03:54:57.876Z,57.50
2018-03-02T03:57:30.288Z,57.50
2018-03-02T04:00:02.702Z,57.10
2018-03-02T04:02:35.317Z,57.80
2018-03-02T04:05:07.910Z,58.00
2018-03-02T04:07:40.592Z,58.20
2018-03-02T04:10:13.580Z,58.30
2018-03-02T04:12:46.763Z,58.70
2018-03-02T04:15:19.440Z,58.70
2018-03-02T04:17:52.011Z,58.90
2018-03-02T04:20:25.604Z,58.10
2018-03-02T04:22:58.054Z,58.10
2018-03-02T04:25:30.628Z,58.70
2018-03-02T04:28:03.967Z,59.00
2018-03-02T04:30:36.369Z,59.00
2018-03-02T04:33:08.812Z,59.50
2018-03-02T04:35:41.223Z,59.50
2018-03-02T04:38:13.752Z,59.70
2018-03-02T04:40:46.176Z,59.50
2018-03-02T04:43:19.476Z,59.70
2018-03-02T04:45:52.040Z,59.70
2018-03-02T04:48:24.438Z,59.60
2018-03-02T04:50:56.862Z,59.50
2018-03-02T04:53:30.128Z,60.60
2018-03-02T04:56:02.601Z,60.60
2018-03-02T04:58:35.211Z,60.40
2018-03-02T05:01:07.829Z,59.70
2018-03-02T05:03:40.467Z,60.40
2018-03-02T05:06:12.912Z,61.10
2018-03-02T05:08:45.282Z,62.00
2018-03-02T05:11:17.722Z,62.00
2018-03-02T05:13:50.299Z,63.80
2018-03-02T05:16:16.747Z,63.90
2018-03-02T05:18:49.411Z,64.60
2018-03-02T05:21:21.975Z,64.80
2018-03-02T05:23:54.363Z,64.60
2018-03-02T05:26:26.733Z,65.00
2018-03-02T05:28:59.292Z,65.60
2018-03-02T05:31:31.884Z,65.70
2018-03-02T05:34:05.587Z,65.40
2018-03-02T05:36:38.023Z,65.40
2018-03-02T05:39:10.484Z,64.70
2018-03-02T05:41:43.644Z,63.30
2018-03-02T05:44:09.963Z,63.30
2018-03-02T05:46:36.582Z,65.00
2018-03-02T05:49:03.909Z,64.20
2018-03-02T05:51:30.236Z,64.20
2018-03-02T05:53:57.356Z,65.50
2018-03-02T05:56:23.922Z,65.60
2018-03-02T05:58:54.313Z,84.30
2018-03-02T06:01:20.771Z,84.60
2018-03-02T06:03:47.376Z,80.00
2018-03-02T06:06:13.986Z,74.90
2018-03-02T06:08:40.386Z,75.40
2018-03-02T06:11:07.695Z,75.00
2018-03-02T06:13:34.284Z,75.30
2018-03-02T06:16:01.535Z,74.30
2018-03-02T06:18:28.230Z,73.50
2018-03-02T06:20:55.537Z,70.80
2018-03-02T06:23:21.907Z,71.00
2018-03-02T06:25:48.233Z,71.80
2018-03-02T06:28:14.852Z,71.80
2018-03-02T06:30:41.342Z,71.40
2018-03-02T06:33:08.586Z,68.40
2018-03-02T06:35:35.086Z,68.60
2018-03-02T06:38:01.644Z,68.10
2018-03-02T06:40:28.183Z,70.60
2018-03-02T06:42:56.048Z,68.50
2018-03-02T06:45:24.077Z,68.40
2018-03-02T06:47:50.663Z,68.60
2018-03-02T06:50:23.220Z,66.80
2018-03-02T06:52:56.518Z,67.10
2018-03-02T06:55:29.775Z,65.90
2018-03-02T06:58:02.945Z,64.20
2018-03-02T07:00:29.297Z,64.30
2018-03-02T07:03:02.415Z,64.10
2018-03-02T07:05:35.172Z,63.70
2018-03-02T07:08:07.839Z,63.90
2018-03-02T07:10:40.248Z,63.00
2018-03-02T07:13:13.709Z,64.50
2018-03-02T07:15:46.138Z,65.00
2018-03-02T07:18:18.541Z,64.50
2018-03-02T07:20:45.178Z,64.10
2018-03-02T07:23:17.703Z,64.70
2018-03-02T07:25:50.376Z,64.30
2018-03-02T07:28:22.924Z,64.40
2018-03-02T07:30:55.598Z,64.50
2018-03-02T07:33:22.825Z,63.20
2018-03-02T07:35:49.759Z,63.00
2018-03-02T07:38:17.066Z,62.00
2018-03-02T07:40:50.347Z,62.00
2018-03-02T07:43:23.719Z,61.30
2018-03-02T07:45:50.979Z,59.50
2018-03-02T07:48:17.658Z,59.50
2018-03-02T07:50:44.216Z,60.60
2018-03-02T07:53:10.736Z,60.00
2018-03-02T07:55:37.075Z,59.10
2018-03-02T07:58:05.619Z,59.40
2018-03-02T08:00:32.926Z,58.70
2018-03-02T08:02:59.440Z,58.70
2018-03-02T08:05:25.817Z,59.80
2018-03-02T08:07:52.175Z,58.90
2018-03-02T08:10:19.547Z,58.60
2018-03-02T08:12:45.973Z,58.60
2018-03-02T08:15:12.432Z,58.80
2018-03-02T08:17:38.771Z,58.80
2018-03-02T08:20:05.063Z,59.20
2018-03-02T08:22:32.379Z,58.50
2018-03-02T08:24:59.571Z,59.30
2018-03-02T08:27:26.278Z,59.40
2018-03-02T08:29:52.582Z,60.10
2018-03-02T08:32:19.490Z,61.50
2018-03-02T08:34:46.574Z,57.40
2018-03-02T08:37:13.066Z,57.40
2018-03-02T08:39:40.498Z,57.70
2018-03-02T08:42:07.902Z,57.80
2018-03-02T08:44:35.931Z,56.00
2018-03-02T08:47:02.380Z,56.20
2018-03-02T08:49:28.994Z,57.00
2018-03-02T08:51:55.293Z,57.90
2018-03-02T08:54:21.936Z,57.30
2018-03-02T08:56:48.273Z,57.60
2018-03-02T08:59:14.569Z,56.60
2018-03-02T09:01:41.127Z,60.30
2018-03-02T09:04:10.083Z,60.90
2018-03-02T09:06:37.571Z,53.30
2018-03-02T09:09:04.796Z,53.00
2018-03-02T09:11:31.302Z,53.00
2018-03-02T09:13:57.591Z,53.50
2018-03-02T09:16:24.939Z,54.20
2018-03-02T09:18:51.219Z,54.50
2018-03-02T09:21:18.322Z,57.90
2018-03-02T09:23:44.827Z,57.30
2018-03-02T09:26:11.153Z,56.10
2018-03-02T09:28:38.426Z,55.40
2018-03-02T09:31:04.940Z,55.60
2018-03-02T09:33:32.258Z,49.40
2018-03-02T09:35:58.753Z,49.60
2018-03-02T09:38:25.129Z,48.50
2018-03-02T09:40:51.654Z,62.80
2018-03-02T09:43:19.022Z,55.70
2018-03-02T09:45:46.336Z,53.00
2018-03-02T09:48:14.628Z,53.70
2018-03-02T09:50:42.063Z,51.50
2018-03-02T09:53:09.586Z,53.00
2018-03-02T09:55:36.975Z,54.00
2018-03-02T09:58:03.627Z,54.10
2018-03-02T10:00:29.933Z,56.00
2018-03-02T10:02:56.524Z,52.70
2018-03-02T10:05:23.163Z,50.90
2018-03-02T10:07:49.495Z,50.60
2018-03-02T10:10:15.928Z,50.80
2018-03-02T10:12:42.539Z,51.10
2018-03-02T10:15:09.096Z,50.90
2018-03-02T10:17:35.670Z,50.80
2018-03-02T10:20:02.262Z,51.30
2018-03-02T10:22:28.827Z,55.20
2018-03-02T10:24:55.447Z,55.50
2018-03-02T10:27:22.007Z,54.00
2018-03-02T10:29:48.309Z,54.10
2018-03-02T10:32:16.631Z,56.50
2018-03-02T10:34:44.083Z,54.30
2018-03-02T10:37:10.735Z,54.20
2018-03-02T10:39:37.215Z,53.90
2018-03-02T10:42:04.512Z,53.10
2018-03-02T10:44:30.862Z,53.20
2018-03-02T10:46:57.382Z,52.70
2018-03-02T10:49:24.127Z,53.20
2018-03-02T10:51:51.600Z,53.00
2018-03-02T10:54:18.236Z,52.60
2018-03-02T10:56:44.786Z,52.70
2018-03-02T10:59:11.362Z,52.60
2018-03-02T11:01:43.947Z,52.70
2018-03-02T11:04:10.497Z,52.40
2018-03-02T11:06:37.941Z,51.40
2018-03-02T11:09:04.538Z,51.70
2018-03-02T11:11:30.884Z,51.80
2018-03-02T11:16:31.509Z,50.00
2018-03-02T11:18:58.162Z,45.20
2018-03-02T11:21:24.761Z,41.90
2018-03-02T11:23:51.339Z,40.90
2018-03-02T11:26:17.950Z,40.60
2018-03-02T11:28:44.518Z,40.00
2018-03-02T11:31:11.723Z,39.90
2018-03-02T11:33:38.214Z,39.10
2018-03-02T11:36:04.662Z,39.10
2018-03-02T11:38:32.080Z,39.10
2018-03-02T11:40:58.464Z,39.30
2018-03-02T11:43:24.935Z,39.00
2018-03-02T11:45:51.679Z,38.70
2018-03-02T11:48:18.238Z,38.90
2018-03-02T11:50:44.755Z,38.50
2018-03-02T11:53:11.296Z,38.60
2018-03-02T11:55:38.327Z,38.50
2018-03-02T11:58:04.895Z,38.40
2018-03-02T12:00:35.219Z,38.40
2018-03-02T12:03:02.519Z,39.00
2018-03-02T12:05:29.738Z,39.00
2018-03-02T12:07:56.296Z,38.90
2018-03-02T12:10:22.894Z,38.60
2018-03-02T12:12:50.146Z,38.60
2018-03-02T12:15:16.652Z,38.60
2018-03-02T12:17:44.089Z,38.60
2018-03-02T12:20:10.649Z,38.40
2018-03-02T12:22:38.102Z,41.80
2018-03-02T12:25:04.535Z,43.50
2018-03-02T12:27:31.138Z,50.30
2018-03-02T12:29:57.679Z,51.20
2018-03-02T12:32:25.033Z,48.60
2018-03-02T12:34:51.456Z,48.70
2018-03-02T12:37:18.074Z,48.00
2018-03-02T12:39:44.641Z,48.00
2018-03-02T12:42:11.015Z,47.30
2018-03-02T12:44:37.685Z,47.20
2018-03-02T12:47:04.232Z,46.70
2018-03-02T12:49:30.777Z,47.00
2018-03-02T12:51:57.284Z,46.90
2018-03-02T12:54:23.817Z,47.30
2018-03-02T12:56:50.870Z,47.20
2018-03-02T12:59:17.375Z,47.50
2018-03-02T13:01:44.629Z,50.80
2018-03-02T13:04:11.105Z,46.40
2018-03-02T13:06:38.540Z,44.70
2018-03-02T13:09:05.800Z,42.50
2018-03-02T13:11:32.473Z,42.40
2018-03-02T13:13:58.796Z,41.90
2018-03-02T13:16:25.452Z,42.00
2018-03-02T13:18:51.991Z,40.90
2018-03-02T13:21:18.720Z,41.30
2018-03-02T13:23:45.048Z,40.20
2018-03-02T13:26:23.796Z,40.20
2018-03-02T13:28:51.192Z,39.80
2018-03-02T13:31:17.526Z,39.90
2018-03-02T13:33:58.328Z,40.10
2018-03-02T13:36:25.665Z,40.50
2018-03-02T13:38:52.146Z,40.60
2018-03-02T13:41:31.654Z,40.60
2018-03-02T13:43:58.111Z,40.50
2018-03-02T13:46:25.464Z,40.50
2018-03-02T13:49:06.173Z,40.60
2018-03-02T13:51:32.743Z,40.60
2018-03-02T13:54:00.127Z,41.30
2018-03-02T13:56:39.476Z,41.30
2018-03-02T13:59:05.843Z,41.40
2018-03-02T14:01:32.564Z,41.70
2018-03-02T14:04:11.190Z,41.40
2018-03-02T14:06:37.777Z,41.70
2018-03-02T14:09:04.253Z,42.00
2018-03-02T14:11:30.580Z,42.30
2018-03-02T14:13:56.883Z,42.40
2018-03-02T14:16:23.666Z,42.50
2018-03-02T14:18:50.030Z,42.00
2018-03-02T14:21:17.371Z,42.40
2018-03-02T14:23:44.689Z,42.50
2018-03-02T14:26:12.166Z,42.00
2018-03-02T14:28:41.628Z,41.90
2018-03-02T14:31:08.483Z,41.90
2018-03-02T14:33:35.067Z,42.00
2018-03-02T14:36:01.400Z,42.10
2018-03-02T14:38:28.660Z,41.90
2018-03-02T14:40:55.759Z,42.10
2018-03-02T14:43:22.333Z,42.10
2018-03-02T14:45:50.452Z,42.00
2018-03-02T14:48:16.802Z,42.10
2018-03-02T14:50:43.183Z,42.00
2018-03-02T14:53:09.712Z,41.90
2018-03-02T14:55:36.589Z,41.90
2018-03-02T14:58:03.146Z,42.00
2018-03-02T15:00:29.717Z,42.20
2018-03-02T15:02:56.990Z,42.00
2018-03-02T15:05:23.813Z,42.30
2018-03-02T15:07:50.311Z,42.50
2018-03-02T15:10:17.077Z,42.30
2018-03-02T15:12:43.670Z,42.30
2018-03-02T15:15:10.364Z,42.30
2018-03-02T15:17:36.899Z,42.70
2018-03-02T15:20:03.507Z,42.90
2018-03-02T15:22:29.858Z,42.40
2018-03-02T15:24:56.405Z,42.40
2018-03-02T15:27:22.924Z,42.70
2018-03-02T15:29:55.501Z,42.90
2018-03-02T15:32:28.806Z,42.70
2018-03-02T15:35:01.268Z,42.90
2018-03-02T15:37:33.645Z,42.80
2018-03-02T15:40:06.094Z,42.80
2018-03-02T15:42:38.531Z,43.10
2018-03-02T15:45:11.634Z,43.10
2018-03-02T15:47:44.369Z,43.20
2018-03-02T15:50:16.796Z,43.00
2018-03-02T15:52:49.207Z,42.90
2018-03-02T15:55:21.567Z,43.50
2018-03-02T15:57:54.031Z,42.90
2018-03-02T16:00:27.171Z,43.10
2018-03-02T16:02:59.575Z,42.60
2018-03-02T16:05:32.395Z,42.30
2018-03-02T16:08:00.008Z,42.10
2018-03-02T16:10:33.072Z,42.30
2018-03-02T16:13:05.444Z,42.50
2018-03-02T16:15:37.978Z,42.30
2018-03-02T16:18:10.503Z,42.50
2018-03-02T16:20:43.070Z,42.60
2018-03-02T16:23:15.449Z,42.70
2018-03-02T16:25:48.639Z,42.60
2018-03-02T16:28:21.172Z,42.60
2018-03-02T16:30:53.553Z,42.60
2018-03-02T16:33:25.903Z,43.00
2018-03-02T16:35:58.395Z,42.70
2018-03-02T16:38:31.020Z,43.20
2018-03-02T16:41:03.644Z,43.10
2018-03-02T16:43:36.260Z,43.30
2018-03-02T16:46:08.798Z,43.40
2018-03-02T16:48:41.279Z,43.50
2018-03-02T16:51:13.629Z,43.50
2018-03-02T16:53:46.085Z,43.60
2018-03-02T16:56:18.703Z,43.80
2018-03-02T16:58:52.012Z,43.20
2018-03-02T17:01:24.510Z,43.30
2018-03-02T17:03:57.111Z,43.40
2018-03-02T17:06:29.478Z,43.90
2018-03-02T17:09:01.822Z,44.00
2018-03-02T17:11:35.031Z,44.40
2018-03-02T17:14:07.477Z,44.50
2018-03-02T17:16:40.578Z,44.90
2018-03-02T17:19:13.744Z,45.40
2018-03-02T17:21:46.937Z,44.80
2018-03-02T17:24:19.404Z,45.10
2018-03-02T17:26:51.713Z,45.10
2018-03-02T17:29:24.924Z,45.10
2018-03-02T17:31:57.434Z,45.10
2018-03-02T17:34:29.730Z,44.70
2018-03-02T17:37:02.144Z,44.70
2018-03-02T17:39:36.120Z,44.80
2018-03-02T17:42:08.543Z,44.90
2018-03-02T17:44:41.018Z,44.90
2018-03-02T17:47:07.983Z,44.80
2018-03-02T17:49:40.609Z,44.90
2018-03-02T17:52:13.335Z,44.70
2018-03-02T17:54:45.944Z,44.60
2018-03-02T17:57:18.396Z,44.50
2018-03-02T17:59:50.914Z,44.40
2018-03-02T18:02:23.477Z,44.50
2018-03-02T18:04:56.702Z,44.60
2018-03-02T18:07:29.353Z,44.60
2018-03-02T18:10:03.094Z,44.70
2018-03-02T18:12:35.539Z,44.80
2018-03-02T18:15:08.053Z,45.60
2018-03-02T18:17:40.661Z,46.30
2018-03-02T18:20:13.248Z,46.70
2018-03-02T18:22:45.649Z,47.40
2018-03-02T18:25:18.291Z,47.80
2018-03-02T18:27:51.044Z,49.10
2018-03-02T18:30:24.283Z,51.80
2018-03-02T18:32:56.806Z,51.90
2018-03-02T18:35:29.429Z,53.20
2018-03-02T18:38:01.756Z,54.50
2018-03-02T18:40:35.148Z,55.90
2018-03-02T18:43:07.632Z,57.20
2018-03-02T18:45:40.172Z,59.80
2018-03-02T18:48:12.759Z,64.70
2018-03-02T18:50:45.445Z,77.80
2018-03-02T18:53:17.859Z,93.00
2018-03-02T18:55:50.382Z,99.90
2018-03-02T18:58:23.084Z,99.90
2018-03-02T19:00:55.560Z,99.90
2018-03-02T19:03:28.032Z,99.90
2018-03-02T19:06:00.512Z,99.90
2018-03-02T19:08:27.988Z,99.90
2018-03-02T19:11:00.511Z,99.90
2018-03-02T19:13:32.969Z,99.90
2018-03-02T19:16:06.187Z,99.90
2018-03-02T19:18:38.780Z,99.90
2018-03-02T19:21:11.466Z,99.90
2018-03-02T19:23:44.546Z,99.90
2018-03-02T19:26:16.985Z,99.90
2018-03-02T19:28:49.569Z,99.90
2018-03-02T19:31:16.250Z,99.90
2018-03-02T19:33:42.697Z,99.90
2018-03-02T19:36:09.440Z,99.90
2018-03-02T19:38:36.056Z,99.90
2018-03-02T19:41:03.046Z,99.90
2018-03-02T19:43:29.341Z,99.90
2018-03-02T19:45:55.772Z,99.90
2018-03-02T19:48:22.517Z,99.90
2018-03-02T19:50:50.054Z,99.90
2018-03-02T19:53:16.415Z,99.90
2018-03-02T19:55:42.912Z,99.90
2018-03-02T19:58:09.247Z,99.90
2018-03-02T20:00:36.119Z,99.90
2018-03-02T20:03:02.735Z,99.90
2018-03-02T20:05:29.335Z,99.90
2018-03-02T20:07:55.840Z,99.90
2018-03-02T20:10:22.435Z,99.90
2018-03-02T20:12:48.876Z,99.90
2018-03-02T20:15:15.429Z,99.90
2018-03-02T20:17:41.967Z,99.90
2018-03-02T20:20:15.338Z,99.90
2018-03-02T20:22:47.709Z,99.90
2018-03-02T20:25:20.831Z,99.90
2018-03-02T20:27:54.372Z,99.90
2018-03-02T20:30:26.772Z,99.90
2018-03-02T20:32:59.956Z,99.90
2018-03-02T20:35:26.737Z,99.90
2018-03-02T20:37:53.464Z,99.90
2018-03-02T20:40:19.809Z,99.90
2018-03-02T20:42:46.391Z,99.90
2018-03-02T20:45:13.017Z,99.90
2018-03-02T20:47:39.590Z,99.90
2018-03-02T20:50:06.850Z,99.90
2018-03-02T20:52:40.195Z,99.90
2018-03-02T20:55:12.848Z,99.90
2018-03-02T20:57:45.449Z,99.90
2018-03-02T21:00:17.832Z,99.90
2018-03-02T21:02:50.749Z,99.90
2018-03-02T21:05:24.635Z,99.90
2018-03-02T21:07:57.341Z,99.90
2018-03-02T21:10:29.802Z,99.90
2018-03-02T21:13:02.225Z,99.90
2018-03-02T21:15:34.761Z,99.90
2018-03-02T21:18:07.352Z,99.90
2018-03-02T21:20:40.197Z,99.90
2018-03-02T21:23:12.672Z,99.90
2018-03-02T21:25:45.068Z,99.90
2018-03-02T21:28:17.498Z,99.90
2018-03-02T21:30:49.914Z,99.90
2018-03-02T21:33:22.362Z,99.90
2018-03-02T21:35:55.515Z,99.90
2018-03-02T21:38:28.232Z,99.90
2018-03-02T21:41:00.927Z,99.90
2018-03-02T21:43:33.579Z,99.90
2018-03-02T21:46:05.967Z,99.90
2018-03-02T21:48:38.527Z,99.90
2018-03-02T21:51:11.152Z,99.90
2018-03-02T21:53:43.801Z,99.90
2018-03-02T21:56:16.862Z,99.90
2018-03-02T21:58:49.398Z,99.90
2018-03-02T22:01:22.258Z,99.90
2018-03-02T22:03:54.942Z,99.90
2018-03-02T22:06:27.453Z,99.90
2018-03-02T22:09:00.306Z,99.90
2018-03-02T22:11:33.092Z,99.90
2018-03-02T22:14:05.691Z,99.90
2018-03-02T22:16:39.084Z,99.90
2018-03-02T22:19:11.556Z,99.90
2018-03-02T22:21:44.989Z,99.90
2018-03-02T22:24:18.249Z,99.90
2018-03-02T22:26:50.898Z,99.90
2018-03-02T22:29:23.528Z,99.90
2018-03-02T22:31:55.953Z,99.90
2018-03-02T22:34:28.390Z,99.90
2018-03-02T22:37:00.936Z,99.90
2018-03-02T22:39:33.759Z,99.90
2018-03-02T22:42:06.699Z,99.90
2018-03-02T22:44:39.139Z,99.90
2018-03-02T22:47:12.512Z,99.90
2018-03-02T22:49:45.013Z,99.90
2018-03-02T22:52:17.354Z,99.90
2018-03-02T22:54:50.011Z,99.90
2018-03-02T22:57:22.613Z,99.90
2018-03-02T23:00:00.538Z,99.90
2018-03-02T23:02:33.152Z,99.90
2018-03-02T23:05:05.767Z,99.90
2018-03-02T23:07:39.110Z,99.90
2018-03-02T23:10:11.662Z,99.90
2018-03-02T23:12:44.008Z,99.90
2018-03-02T23:15:17.312Z,99.90
2018-03-02T23:17:49.866Z,99.90
2018-03-02T23:20:23.196Z,99.90
2018-03-02T23:22:55.808Z,99.90
2018-03-02T23:25:28.441Z,99.90
2018-03-02T23:28:00.877Z,99.90
2018-03-02T23:30:33.336Z,99.90
2018-03-02T23:33:06.745Z,99.90
2018-03-02T23:35:39.320Z,99.90
2018-03-02T23:38:11.917Z,99.90
2018-03-02T23:40:44.495Z,99.90
2018-03-02T23:43:16.974Z,99.90
2018-03-02T23:45:49.861Z,99.90
2018-03-02T23:48:22.205Z,99.90
2018-03-02T23:50:54.873Z,99.90
2018-03-02T23:53:27.667Z,99.90
2018-03-02T23:56:00.242Z,99.90
2018-03-02T23:58:32.956Z,99.90
